sensor_id;sensor_type;location;lat;lon;timestamp;pressure;altitude;pressure_sealevel;temperature;humidity
39275;BME280;24980;48.874;2.332;2023-11-21T00:00:27;100834.14;;;24.37;46.19
39275;BME280;24980;48.874;2.332;2023-11-21T00:02:54;100838.50;;;24.38;46.18
39275;BME280;24980;48.874;2.332;2023-11-21T00:05:25;100833.69;;;24.40;46.17
39275;BME280;24980;48.874;2.332;2023-11-21T00:07:56;100835.72;;;24.41;46.19
39275;BME280;24980;48.874;2.332;2023-11-21T00:10:27;100836.89;;;24.42;46.20
39275;BME280;24980;48.874;2.332;2023-11-21T00:12:57;100835.03;;;24.45;46.18
39275;BME280;24980;48.874;2.332;2023-11-21T00:15:27;100838.53;;;24.48;46.16
39275;BME280;24980;48.874;2.332;2023-11-21T00:17:57;100834.22;;;24.50;46.13
39275;BME280;24980;48.874;2.332;2023-11-21T00:20:28;100830.75;;;24.50;46.12
39275;BME280;24980;48.874;2.332;2023-11-21T00:23:00;100831.93;;;24.50;46.12
39275;BME280;24980;48.874;2.332;2023-11-21T00:25:29;100834.10;;;24.49;46.13
39275;BME280;24980;48.874;2.332;2023-11-21T00:27:58;100833.34;;;24.49;46.15
39275;BME280;24980;48.874;2.332;2023-11-21T00:30:29;100835.45;;;24.50;46.18
39275;BME280;24980;48.874;2.332;2023-11-21T00:32:59;100839.64;;;24.51;46.20
39275;BME280;24980;48.874;2.332;2023-11-21T00:35:30;100838.12;;;24.50;46.22
39275;BME280;24980;48.874;2.332;2023-11-21T00:38:01;100837.17;;;24.51;46.22
39275;BME280;24980;48.874;2.332;2023-11-21T00:40:30;100836.23;;;24.52;46.22
39275;BME280;24980;48.874;2.332;2023-11-21T00:43:01;100834.71;;;24.52;46.22
39275;BME280;24980;48.874;2.332;2023-11-21T00:45:32;100837.91;;;24.53;46.23
39275;BME280;24980;48.874;2.332;2023-11-21T00:48:03;100835.72;;;24.52;46.23
39275;BME280;24980;48.874;2.332;2023-11-21T00:50:32;100830.72;;;24.52;46.25
39275;BME280;24980;48.874;2.332;2023-11-21T00:53:03;100826.19;;;24.53;46.27
39275;BME280;24980;48.874;2.332;2023-11-21T00:55:34;100828.94;;;24.52;46.27
39275;BME280;24980;48.874;2.332;2023-11-21T00:58:04;100827.75;;;24.53;46.27
39275;BME280;24980;48.874;2.332;2023-11-21T01:00:35;100830.13;;;24.52;46.29
39275;BME280;24980;48.874;2.332;2023-11-21T01:03:06;100827.75;;;24.52;46.31
39275;BME280;24980;48.874;2.332;2023-11-21T01:05:37;100830.20;;;24.52;46.31
39275;BME280;24980;48.874;2.332;2023-11-21T01:08:07;100830.03;;;24.52;46.33
39275;BME280;24980;48.874;2.332;2023-11-21T01:10:38;100830.38;;;24.52;46.34
39275;BME280;24980;48.874;2.332;2023-11-21T01:13:09;100836.94;;;24.53;46.34
39275;BME280;24980;48.874;2.332;2023-11-21T01:15:39;100840.07;;;24.54;46.34
39275;BME280;24980;48.874;2.332;2023-11-21T01:18:10;100849.56;;;24.54;46.34
39275;BME280;24980;48.874;2.332;2023-11-21T01:20:40;100847.02;;;24.54;46.34
39275;BME280;24980;48.874;2.332;2023-11-21T01:23:11;100848.00;;;24.52;46.36
39275;BME280;24980;48.874;2.332;2023-11-21T01:25:41;100855.55;;;24.52;46.36
39275;BME280;24980;48.874;2.332;2023-11-21T01:28:11;100850.80;;;24.53;46.37
39275;BME280;24980;48.874;2.332;2023-11-21T01:30:43;100847.92;;;24.52;46.37
39275;BME280;24980;48.874;2.332;2023-11-21T01:33:15;100849.98;;;24.51;46.38
39275;BME280;24980;48.874;2.332;2023-11-21T01:35:44;100848.88;;;24.50;46.39
39275;BME280;24980;48.874;2.332;2023-11-21T01:38:14;100856.41;;;24.52;46.39
39275;BME280;24980;48.874;2.332;2023-11-21T01:40:44;100855.89;;;24.52;46.38
39275;BME280;24980;48.874;2.332;2023-11-21T01:43:15;100864.66;;;24.53;46.37
39275;BME280;24980;48.874;2.332;2023-11-21T01:45:45;100869.05;;;24.54;46.37
39275;BME280;24980;48.874;2.332;2023-11-21T01:48:16;100870.38;;;24.52;46.40
39275;BME280;24980;48.874;2.332;2023-11-21T01:50:50;100869.27;;;24.53;46.43
39275;BME280;24980;48.874;2.332;2023-11-21T01:53:23;100873.25;;;24.52;46.45
39275;BME280;24980;48.874;2.332;2023-11-21T01:55:47;100875.78;;;24.53;46.46
39275;BME280;24980;48.874;2.332;2023-11-21T01:58:18;100876.59;;;24.53;46.45
39275;BME280;24980;48.874;2.332;2023-11-21T02:00:48;100877.02;;;24.53;46.45
39275;BME280;24980;48.874;2.332;2023-11-21T02:03:19;100875.62;;;24.52;46.43
39275;BME280;24980;48.874;2.332;2023-11-21T02:05:51;100878.09;;;24.52;46.45
39275;BME280;24980;48.874;2.332;2023-11-21T02:08:20;100875.31;;;24.51;46.50
39275;BME280;24980;48.874;2.332;2023-11-21T02:10:50;100877.69;;;24.50;46.54
39275;BME280;24980;48.874;2.332;2023-11-21T02:13:23;100875.30;;;24.51;46.56
39275;BME280;24980;48.874;2.332;2023-11-21T02:15:50;100877.74;;;24.53;46.56
39275;BME280;24980;48.874;2.332;2023-11-21T02:18:23;100875.45;;;24.52;46.57
39275;BME280;24980;48.874;2.332;2023-11-21T02:20:51;100876.00;;;24.53;46.60
39275;BME280;24980;48.874;2.332;2023-11-21T02:23:22;100871.43;;;24.53;46.63
39275;BME280;24980;48.874;2.332;2023-11-21T02:25:52;100875.73;;;24.54;46.63
39275;BME280;24980;48.874;2.332;2023-11-21T02:28:24;100880.38;;;24.56;46.64
39275;BME280;24980;48.874;2.332;2023-11-21T02:30:52;100883.52;;;24.55;46.65
39275;BME280;24980;48.874;2.332;2023-11-21T02:33:22;100883.86;;;24.55;46.65
39275;BME280;24980;48.874;2.332;2023-11-21T02:35:55;100882.77;;;24.55;46.62
39275;BME280;24980;48.874;2.332;2023-11-21T02:38:23;100885.39;;;24.54;46.62
39275;BME280;24980;48.874;2.332;2023-11-21T02:40:53;100890.06;;;24.54;46.59
39275;BME280;24980;48.874;2.332;2023-11-21T02:43:23;100889.55;;;24.54;46.59
39275;BME280;24980;48.874;2.332;2023-11-21T02:45:53;100889.94;;;24.53;46.58
39275;BME280;24980;48.874;2.332;2023-11-21T02:48:23;100888.16;;;24.53;46.56
39275;BME280;24980;48.874;2.332;2023-11-21T02:50:53;100884.88;;;24.52;46.53
39275;BME280;24980;48.874;2.332;2023-11-21T02:53:24;100891.13;;;24.52;46.50
39275;BME280;24980;48.874;2.332;2023-11-21T02:55:54;100891.64;;;24.53;46.48
39275;BME280;24980;48.874;2.332;2023-11-21T02:58:24;100887.75;;;24.52;46.46
39275;BME280;24980;48.874;2.332;2023-11-21T03:00:54;100886.55;;;24.53;46.43
39275;BME280;24980;48.874;2.332;2023-11-21T03:03:26;100886.56;;;24.52;46.41
39275;BME280;24980;48.874;2.332;2023-11-21T03:05:55;100888.59;;;24.52;46.39
39275;BME280;24980;48.874;2.332;2023-11-21T03:08:25;100883.17;;;24.52;46.37
39275;BME280;24980;48.874;2.332;2023-11-21T03:10:55;100881.48;;;24.52;46.34
39275;BME280;24980;48.874;2.332;2023-11-21T03:13:25;100881.41;;;24.51;46.34
39275;BME280;24980;48.874;2.332;2023-11-21T03:15:55;100883.45;;;24.50;46.35
39275;BME280;24980;48.874;2.332;2023-11-21T03:18:25;100879.09;;;24.49;46.35
39275;BME280;24980;48.874;2.332;2023-11-21T03:20:57;100887.52;;;24.50;46.33
39275;BME280;24980;48.874;2.332;2023-11-21T03:23:26;100887.77;;;24.51;46.31
39275;BME280;24980;48.874;2.332;2023-11-21T03:25:56;100890.31;;;24.51;46.29
39275;BME280;24980;48.874;2.332;2023-11-21T03:28:26;100893.27;;;24.50;46.27
39275;BME280;24980;48.874;2.332;2023-11-21T03:30:56;100895.22;;;24.51;46.26
39275;BME280;24980;48.874;2.332;2023-11-21T03:33:27;100900.21;;;24.51;46.26
39275;BME280;24980;48.874;2.332;2023-11-21T03:35:58;100896.06;;;24.52;46.24
39275;BME280;24980;48.874;2.332;2023-11-21T03:38:28;100897.25;;;24.51;46.25
39275;BME280;24980;48.874;2.332;2023-11-21T03:40:58;100898.09;;;24.52;46.24
39275;BME280;24980;48.874;2.332;2023-11-21T03:43:28;100900.30;;;24.52;46.23
39275;BME280;24980;48.874;2.332;2023-11-21T03:45:59;100900.86;;;24.50;46.24
39275;BME280;24980;48.874;2.332;2023-11-21T03:48:29;100896.73;;;24.48;46.25
39275;BME280;24980;48.874;2.332;2023-11-21T03:50:59;100896.23;;;24.47;46.25
39275;BME280;24980;48.874;2.332;2023-11-21T03:53:30;100900.98;;;24.47;46.25
39275;BME280;24980;48.874;2.332;2023-11-21T03:56:03;100904.70;;;24.47;46.25
39275;BME280;24980;48.874;2.332;2023-11-21T03:58:31;100903.77;;;24.48;46.24
39275;BME280;24980;48.874;2.332;2023-11-21T04:01:02;100901.12;;;24.48;46.22
39275;BME280;24980;48.874;2.332;2023-11-21T04:03:32;100906.11;;;24.50;46.21
39275;BME280;24980;48.874;2.332;2023-11-21T04:06:02;100905.96;;;24.48;46.23
39275;BME280;24980;48.874;2.332;2023-11-21T04:08:32;100905.44;;;24.49;46.24
39275;BME280;24980;48.874;2.332;2023-11-21T04:11:02;100908.92;;;24.49;46.24
39275;BME280;24980;48.874;2.332;2023-11-21T04:13:32;100919.09;;;24.48;46.25
39275;BME280;24980;48.874;2.332;2023-11-21T04:16:03;100922.82;;;24.48;46.22
39275;BME280;24980;48.874;2.332;2023-11-21T04:18:33;100926.80;;;24.49;46.21
39275;BME280;24980;48.874;2.332;2023-11-21T04:21:04;100930.12;;;24.48;46.18
39275;BME280;24980;48.874;2.332;2023-11-21T04:23:34;100935.88;;;24.47;46.18
39275;BME280;24980;48.874;2.332;2023-11-21T04:26:05;100939.40;;;24.47;46.18
39275;BME280;24980;48.874;2.332;2023-11-21T04:28:35;100941.77;;;24.47;46.19
39275;BME280;24980;48.874;2.332;2023-11-21T04:31:05;100940.08;;;24.47;46.19
39275;BME280;24980;48.874;2.332;2023-11-21T04:33:35;100937.67;;;24.47;46.18
39275;BME280;24980;48.874;2.332;2023-11-21T04:36:06;100940.95;;;24.48;46.17
39275;BME280;24980;48.874;2.332;2023-11-21T04:38:36;100942.05;;;24.49;46.15
39275;BME280;24980;48.874;2.332;2023-11-21T04:41:07;100946.89;;;24.48;46.16
39275;BME280;24980;48.874;2.332;2023-11-21T04:43:37;100945.01;;;24.49;46.15
39275;BME280;24980;48.874;2.332;2023-11-21T04:46:08;100943.83;;;24.49;46.14
39275;BME280;24980;48.874;2.332;2023-11-21T04:48:38;100949.69;;;24.48;46.15
39275;BME280;24980;48.874;2.332;2023-11-21T04:51:08;100951.04;;;24.48;46.15
39275;BME280;24980;48.874;2.332;2023-11-21T04:53:38;100945.77;;;24.46;46.16
39275;BME280;24980;48.874;2.332;2023-11-21T04:56:09;100946.10;;;24.46;46.17
39275;BME280;24980;48.874;2.332;2023-11-21T04:58:39;100949.92;;;24.46;46.19
39275;BME280;24980;48.874;2.332;2023-11-21T05:01:09;100948.56;;;24.46;46.22
39275;BME280;24980;48.874;2.332;2023-11-21T05:03:39;100954.10;;;24.46;46.25
39275;BME280;24980;48.874;2.332;2023-11-21T05:06:10;100954.73;;;24.46;46.26
39275;BME280;24980;48.874;2.332;2023-11-21T05:08:40;100955.88;;;24.48;46.27
39275;BME280;24980;48.874;2.332;2023-11-21T05:11:10;100952.48;;;24.48;46.27
39275;BME280;24980;48.874;2.332;2023-11-21T05:13:40;100952.95;;;24.47;46.28
39275;BME280;24980;48.874;2.332;2023-11-21T05:16:10;100955.12;;;24.47;46.28
39275;BME280;24980;48.874;2.332;2023-11-21T05:18:40;100960.10;;;24.48;46.26
39275;BME280;24980;48.874;2.332;2023-11-21T05:21:11;100966.80;;;24.48;46.25
39275;BME280;24980;48.874;2.332;2023-11-21T05:23:41;100967.48;;;24.48;46.24
39275;BME280;24980;48.874;2.332;2023-11-21T05:26:11;100969.17;;;24.48;46.24
39275;BME280;24980;48.874;2.332;2023-11-21T05:28:41;100968.75;;;24.48;46.21
39275;BME280;24980;48.874;2.332;2023-11-21T05:31:11;100974.00;;;24.48;46.21
39275;BME280;24980;48.874;2.332;2023-11-21T05:33:42;100974.86;;;24.47;46.23
39275;BME280;24980;48.874;2.332;2023-11-21T05:36:12;100975.96;;;24.47;46.20
39275;BME280;24980;48.874;2.332;2023-11-21T05:38:43;100978.42;;;24.47;46.18
39275;BME280;24980;48.874;2.332;2023-11-21T05:41:13;100982.23;;;24.48;46.19
39275;BME280;24980;48.874;2.332;2023-11-21T05:43:43;100985.53;;;24.47;46.19
39275;BME280;24980;48.874;2.332;2023-11-21T05:46:13;100989.67;;;24.48;46.18
39275;BME280;24980;48.874;2.332;2023-11-21T05:48:44;100991.44;;;24.49;46.17
39275;BME280;24980;48.874;2.332;2023-11-21T05:51:14;100992.13;;;24.48;46.19
39275;BME280;24980;48.874;2.332;2023-11-21T05:53:44;100993.48;;;24.49;46.18
39275;BME280;24980;48.874;2.332;2023-11-21T05:56:15;100995.34;;;24.49;46.18
39275;BME280;24980;48.874;2.332;2023-11-21T05:58:45;100996.03;;;24.48;46.19
39275;BME280;24980;48.874;2.332;2023-11-21T06:01:15;100997.73;;;24.48;46.19
39275;BME280;24980;48.874;2.332;2023-11-21T06:03:45;100996.04;;;24.47;46.19
39275;BME280;24980;48.874;2.332;2023-11-21T06:06:16;101003.28;;;24.47;46.20
39275;BME280;24980;48.874;2.332;2023-11-21T06:08:46;101004.94;;;24.47;46.20
39275;BME280;24980;48.874;2.332;2023-11-21T06:11:16;101007.06;;;24.47;46.20
39275;BME280;24980;48.874;2.332;2023-11-21T06:13:46;101005.44;;;24.48;46.21
39275;BME280;24980;48.874;2.332;2023-11-21T06:16:17;101005.95;;;24.48;46.20
39275;BME280;24980;48.874;2.332;2023-11-21T06:18:47;101007.63;;;24.49;46.22
39275;BME280;24980;48.874;2.332;2023-11-21T06:21:17;101013.09;;;24.50;46.23
39275;BME280;24980;48.874;2.332;2023-11-21T06:23:48;101020.20;;;24.50;46.24
39275;BME280;24980;48.874;2.332;2023-11-21T06:26:18;101024.77;;;24.51;46.24
39275;BME280;24980;48.874;2.332;2023-11-21T06:28:48;101022.49;;;24.51;46.24
39275;BME280;24980;48.874;2.332;2023-11-21T06:31:19;101019.78;;;24.50;46.25
39275;BME280;24980;48.874;2.332;2023-11-21T06:33:49;101026.10;;;24.49;46.26
39275;BME280;24980;48.874;2.332;2023-11-21T06:36:19;101026.55;;;24.47;46.27
39275;BME280;24980;48.874;2.332;2023-11-21T06:38:49;101026.62;;;24.47;46.25
39275;BME280;24980;48.874;2.332;2023-11-21T06:41:20;101024.05;;;24.46;46.26
39275;BME280;24980;48.874;2.332;2023-11-21T06:43:49;101024.05;;;24.46;46.26
39275;BME280;24980;48.874;2.332;2023-11-21T06:46:19;101028.22;;;24.49;46.24
39275;BME280;24980;48.874;2.332;2023-11-21T06:48:49;101024.44;;;24.51;46.23
39275;BME280;24980;48.874;2.332;2023-11-21T06:51:20;101027.01;;;24.53;46.21
39275;BME280;24980;48.874;2.332;2023-11-21T06:53:51;101028.94;;;24.55;46.19
39275;BME280;24980;48.874;2.332;2023-11-21T06:56:20;101030.32;;;24.57;46.17
39275;BME280;24980;48.874;2.332;2023-11-21T06:58:50;101030.73;;;24.58;46.15
39275;BME280;24980;48.874;2.332;2023-11-21T07:01:20;101033.39;;;24.59;46.15
39275;BME280;24980;48.874;2.332;2023-11-21T07:03:51;101040.47;;;24.59;46.16
39275;BME280;24980;48.874;2.332;2023-11-21T07:06:24;101040.81;;;24.59;46.18
39275;BME280;24980;48.874;2.332;2023-11-21T07:08:52;101047.46;;;24.60;46.18
39275;BME280;24980;48.874;2.332;2023-11-21T07:11:22;101048.12;;;24.61;46.17
39275;BME280;24980;48.874;2.332;2023-11-21T07:13:52;101053.41;;;24.63;46.16
39275;BME280;24980;48.874;2.332;2023-11-21T07:16:23;101058.56;;;24.64;46.15
39275;BME280;24980;48.874;2.332;2023-11-21T07:18:53;101064.87;;;24.66;46.16
39275;BME280;24980;48.874;2.332;2023-11-21T07:21:23;101066.12;;;24.68;46.16
39275;BME280;24980;48.874;2.332;2023-11-21T07:23:53;101075.73;;;24.70;46.13
39275;BME280;24980;48.874;2.332;2023-11-21T07:26:24;101077.58;;;24.71;46.09
39275;BME280;24980;48.874;2.332;2023-11-21T07:28:54;101077.06;;;24.72;46.08
39275;BME280;24980;48.874;2.332;2023-11-21T07:31:25;101083.00;;;24.72;46.09
39275;BME280;24980;48.874;2.332;2023-11-21T07:33:55;101087.07;;;24.72;46.12
39275;BME280;24980;48.874;2.332;2023-11-21T07:36:26;101085.91;;;24.73;46.13
39275;BME280;24980;48.874;2.332;2023-11-21T07:38:57;101081.41;;;24.75;46.11
39275;BME280;24980;48.874;2.332;2023-11-21T07:41:26;101091.95;;;24.76;46.12
39275;BME280;24980;48.874;2.332;2023-11-21T07:43:59;101089.86;;;24.79;46.13
39275;BME280;24980;48.874;2.332;2023-11-21T07:46:27;101094.33;;;24.81;46.14
39275;BME280;24980;48.874;2.332;2023-11-21T07:48:57;101099.39;;;24.83;46.12
39275;BME280;24980;48.874;2.332;2023-11-21T07:51:30;101097.34;;;24.84;46.09
39275;BME280;24980;48.874;2.332;2023-11-21T07:53:58;101105.73;;;24.85;46.07
39275;BME280;24980;48.874;2.332;2023-11-21T07:56:28;101107.09;;;24.84;46.07
39275;BME280;24980;48.874;2.332;2023-11-21T07:58:59;101107.77;;;24.84;46.05
39275;BME280;24980;48.874;2.332;2023-11-21T08:01:29;101116.61;;;24.82;46.05
39275;BME280;24980;48.874;2.332;2023-11-21T08:04:00;101114.83;;;24.78;46.09
39275;BME280;24980;48.874;2.332;2023-11-21T08:06:30;101116.74;;;24.71;46.18
39275;BME280;24980;48.874;2.332;2023-11-21T08:09:00;101118.44;;;24.66;46.25
39275;BME280;24980;48.874;2.332;2023-11-21T08:11:30;101119.81;;;24.62;46.28
39275;BME280;24980;48.874;2.332;2023-11-21T08:14:00;101124.97;;;24.58;46.32
39275;BME280;24980;48.874;2.332;2023-11-21T08:16:30;101128.95;;;24.53;46.37
39275;BME280;24980;48.874;2.332;2023-11-21T08:19:00;101134.27;;;24.55;46.36
39275;BME280;24980;48.874;2.332;2023-11-21T08:21:30;101132.80;;;24.52;46.38
39275;BME280;24980;48.874;2.332;2023-11-21T08:24:01;101133.92;;;24.51;46.38
39275;BME280;24980;48.874;2.332;2023-11-21T08:26:31;101134.23;;;24.49;46.38
39275;BME280;24980;48.874;2.332;2023-11-21T08:29:01;101133.98;;;24.48;46.40
39275;BME280;24980;48.874;2.332;2023-11-21T08:31:31;101138.91;;;24.47;46.39
39275;BME280;24980;48.874;2.332;2023-11-21T08:34:01;101137.76;;;24.46;46.42
39275;BME280;24980;48.874;2.332;2023-11-21T08:36:31;101145.72;;;24.46;46.43
39275;BME280;24980;48.874;2.332;2023-11-21T08:39:01;101144.91;;;24.47;46.42
39275;BME280;24980;48.874;2.332;2023-11-21T08:41:31;101146.40;;;24.46;46.43
39275;BME280;24980;48.874;2.332;2023-11-21T08:44:01;101150.56;;;24.44;46.45
39275;BME280;24980;48.874;2.332;2023-11-21T08:46:31;101145.27;;;24.43;46.45
39275;BME280;24980;48.874;2.332;2023-11-21T08:49:01;101149.27;;;24.42;46.46
39275;BME280;24980;48.874;2.332;2023-11-21T08:51:32;101156.05;;;24.42;46.46
39275;BME280;24980;48.874;2.332;2023-11-21T08:54:02;101161.71;;;24.43;46.44
39275;BME280;24980;48.874;2.332;2023-11-21T08:56:32;101170.61;;;24.43;46.42
39275;BME280;24980;48.874;2.332;2023-11-21T08:59:02;101173.73;;;24.43;46.41
39275;BME280;24980;48.874;2.332;2023-11-21T09:01:32;101173.41;;;24.43;46.41
39275;BME280;24980;48.874;2.332;2023-11-21T09:04:02;101175.28;;;24.41;46.42
39275;BME280;24980;48.874;2.332;2023-11-21T09:06:33;101182.37;;;24.38;46.44
39275;BME280;24980;48.874;2.332;2023-11-21T09:09:03;101182.38;;;24.37;46.44
39275;BME280;24980;48.874;2.332;2023-11-21T09:11:33;101189.88;;;24.35;46.47
39275;BME280;24980;48.874;2.332;2023-11-21T09:14:03;101186.75;;;24.35;46.48
39275;BME280;24980;48.874;2.332;2023-11-21T09:16:33;101184.03;;;24.35;46.48
39275;BME280;24980;48.874;2.332;2023-11-21T09:19:03;101188.27;;;24.36;46.47
39275;BME280;24980;48.874;2.332;2023-11-21T09:21:33;101189.70;;;24.36;46.46
39275;BME280;24980;48.874;2.332;2023-11-21T09:24:05;101191.32;;;24.35;46.46
39275;BME280;24980;48.874;2.332;2023-11-21T09:26:34;101190.14;;;24.35;46.49
39275;BME280;24980;48.874;2.332;2023-11-21T09:29:04;101192.33;;;24.36;46.48
39275;BME280;24980;48.874;2.332;2023-11-21T09:31:34;101191.91;;;24.36;46.47
39275;BME280;24980;48.874;2.332;2023-11-21T09:34:04;101193.88;;;24.34;46.48
39275;BME280;24980;48.874;2.332;2023-11-21T09:36:37;101195.60;;;24.34;46.50
39275;BME280;24980;48.874;2.332;2023-11-21T09:39:05;101192.60;;;24.34;46.49
39275;BME280;24980;48.874;2.332;2023-11-21T09:41:52;101199.16;;;24.33;46.50
39275;BME280;24980;48.874;2.332;2023-11-21T09:44:08;101202.31;;;24.32;46.51
39275;BME280;24980;48.874;2.332;2023-11-21T09:46:37;101205.95;;;24.31;46.54
39275;BME280;24980;48.874;2.332;2023-11-21T09:49:09;101206.55;;;24.31;46.52
39275;BME280;24980;48.874;2.332;2023-11-21T09:51:43;101208.79;;;24.30;46.55
39275;BME280;24980;48.874;2.332;2023-11-21T09:54:10;101210.83;;;24.29;46.58
39275;BME280;24980;48.874;2.332;2023-11-21T09:56:38;101217.61;;;24.29;46.58
39275;BME280;24980;48.874;2.332;2023-11-21T09:59:13;101221.42;;;24.29;46.57
39275;BME280;24980;48.874;2.332;2023-11-21T10:01:40;101227.98;;;24.31;46.55
39275;BME280;24980;48.874;2.332;2023-11-21T10:04:09;101229.80;;;24.29;46.54
39275;BME280;24980;48.874;2.332;2023-11-21T10:06:40;101234.68;;;24.27;46.55
39275;BME280;24980;48.874;2.332;2023-11-21T10:09:10;101239.56;;;24.28;46.54
39275;BME280;24980;48.874;2.332;2023-11-21T10:11:43;101241.17;;;24.28;46.57
39275;BME280;24980;48.874;2.332;2023-11-21T10:14:11;101246.89;;;24.26;46.61
39275;BME280;24980;48.874;2.332;2023-11-21T10:16:41;101253.75;;;24.25;46.64
39275;BME280;24980;48.874;2.332;2023-11-21T10:19:12;101257.98;;;24.25;46.65
39275;BME280;24980;48.874;2.332;2023-11-21T10:21:41;101263.41;;;24.25;46.64
39275;BME280;24980;48.874;2.332;2023-11-21T10:24:11;101266.76;;;24.23;46.64
39275;BME280;24980;48.874;2.332;2023-11-21T10:26:41;101268.03;;;24.22;46.65
39275;BME280;24980;48.874;2.332;2023-11-21T10:29:14;101272.23;;;24.20;46.66
39275;BME280;24980;48.874;2.332;2023-11-21T10:31:42;101276.56;;;24.18;46.67
39275;BME280;24980;48.874;2.332;2023-11-21T10:34:17;101276.30;;;24.18;46.66
39275;BME280;24980;48.874;2.332;2023-11-21T10:36:43;101274.27;;;24.19;46.65
39275;BME280;24980;48.874;2.332;2023-11-21T10:39:16;101278.83;;;24.21;46.62
39275;BME280;24980;48.874;2.332;2023-11-21T10:41:48;101275.61;;;24.21;46.61
39275;BME280;24980;48.874;2.332;2023-11-21T10:44:16;101272.83;;;24.19;46.64
39275;BME280;24980;48.874;2.332;2023-11-21T10:46:50;101274.43;;;24.20;46.65
39275;BME280;24980;48.874;2.332;2023-11-21T10:49:17;101278.23;;;24.21;46.65
39275;BME280;24980;48.874;2.332;2023-11-21T10:51:46;101277.36;;;24.32;46.56
39275;BME280;24980;48.874;2.332;2023-11-21T10:54:23;101278.38;;;24.43;46.45
39275;BME280;24980;48.874;2.332;2023-11-21T10:56:49;101278.51;;;24.45;46.43
39275;BME280;24980;48.874;2.332;2023-11-21T10:59:17;101279.84;;;24.41;46.48
39275;BME280;24980;48.874;2.332;2023-11-21T11:01:50;101281.20;;;24.35;46.57
39275;BME280;24980;48.874;2.332;2023-11-21T11:04:19;101282.66;;;24.30;46.63
39275;BME280;24980;48.874;2.332;2023-11-21T11:06:52;101281.96;;;24.25;46.70
39275;BME280;24980;48.874;2.332;2023-11-21T11:09:20;101286.59;;;24.22;46.72
39275;BME280;24980;48.874;2.332;2023-11-21T11:11:51;101286.55;;;24.20;46.75
39275;BME280;24980;48.874;2.332;2023-11-21T11:14:20;101287.15;;;24.18;46.78
39275;BME280;24980;48.874;2.332;2023-11-21T11:16:54;101281.77;;;24.16;46.80
39275;BME280;24980;48.874;2.332;2023-11-21T11:19:21;101277.58;;;24.13;46.81
39275;BME280;24980;48.874;2.332;2023-11-21T11:22:16;101276.92;;;24.11;46.82
39275;BME280;24980;48.874;2.332;2023-11-21T11:24:58;101284.70;;;24.11;46.82
39275;BME280;24980;48.874;2.332;2023-11-21T11:27:07;101283.95;;;24.11;46.82
39275;BME280;24980;48.874;2.332;2023-11-21T11:29:46;101282.68;;;24.11;46.81
39275;BME280;24980;48.874;2.332;2023-11-21T11:32:31;101284.03;;;24.10;46.80
39275;BME280;24980;48.874;2.332;2023-11-21T11:34:30;101280.41;;;24.09;46.80
39275;BME280;24980;48.874;2.332;2023-11-21T11:37:00;101282.73;;;24.08;46.83
39275;BME280;24980;48.874;2.332;2023-11-21T11:39:36;101279.43;;;24.07;46.82
39275;BME280;24980;48.874;2.332;2023-11-21T11:41:55;101283.83;;;24.07;46.81
39275;BME280;24980;48.874;2.332;2023-11-21T11:44:48;101287.06;;;24.06;46.81
39275;BME280;24980;48.874;2.332;2023-11-21T11:46:56;101290.95;;;24.05;46.80
39275;BME280;24980;48.874;2.332;2023-11-21T11:49:29;101292.13;;;24.06;46.79
39275;BME280;24980;48.874;2.332;2023-11-21T11:54:37;101294.59;;;24.06;46.76
39275;BME280;24980;48.874;2.332;2023-11-21T11:56:59;101292.81;;;24.05;46.76
39275;BME280;24980;48.874;2.332;2023-11-21T11:59:29;101296.55;;;24.05;46.77
39275;BME280;24980;48.874;2.332;2023-11-21T12:01:59;101291.80;;;24.05;46.77
39275;BME280;24980;48.874;2.332;2023-11-21T12:04:30;101297.73;;;24.06;46.77
39275;BME280;24980;48.874;2.332;2023-11-21T12:07:00;101296.28;;;24.05;46.77
39275;BME280;24980;48.874;2.332;2023-11-21T12:09:31;101299.34;;;24.05;46.78
39275;BME280;24980;48.874;2.332;2023-11-21T12:12:02;101299.51;;;24.05;46.78
39275;BME280;24980;48.874;2.332;2023-11-21T12:14:31;101299.59;;;24.05;46.78
39275;BME280;24980;48.874;2.332;2023-11-21T12:17:01;101303.14;;;24.06;46.78
39275;BME280;24980;48.874;2.332;2023-11-21T12:19:32;101304.58;;;24.06;46.79
39275;BME280;24980;48.874;2.332;2023-11-21T12:22:02;101307.30;;;24.06;46.80
39275;BME280;24980;48.874;2.332;2023-11-21T12:24:32;101309.79;;;24.05;46.81
39275;BME280;24980;48.874;2.332;2023-11-21T12:27:02;101300.91;;;24.03;46.81
39275;BME280;24980;48.874;2.332;2023-11-21T12:29:33;101302.94;;;24.04;46.80
39275;BME280;24980;48.874;2.332;2023-11-21T12:32:03;101307.77;;;24.02;46.82
39275;BME280;24980;48.874;2.332;2023-11-21T12:34:33;101309.67;;;23.99;46.85
39275;BME280;24980;48.874;2.332;2023-11-21T12:37:03;101313.23;;;23.99;46.85
39275;BME280;24980;48.874;2.332;2023-11-21T12:39:33;101322.45;;;24.00;46.85
39275;BME280;24980;48.874;2.332;2023-11-21T12:42:04;101319.75;;;24.01;46.83
39275;BME280;24980;48.874;2.332;2023-11-21T12:44:34;101323.47;;;24.00;46.83
39275;BME280;24980;48.874;2.332;2023-11-21T12:47:04;101330.33;;;24.00;46.83
39275;BME280;24980;48.874;2.332;2023-11-21T12:49:34;101334.91;;;24.00;46.83
39275;BME280;24980;48.874;2.332;2023-11-21T12:52:07;101334.61;;;23.98;46.87
39275;BME280;24980;48.874;2.332;2023-11-21T12:54:38;101336.42;;;24.00;46.85
39275;BME280;24980;48.874;2.332;2023-11-21T12:57:06;101336.84;;;24.01;46.83
39275;BME280;24980;48.874;2.332;2023-11-21T12:59:38;101335.88;;;24.02;46.81
39275;BME280;24980;48.874;2.332;2023-11-21T13:02:06;101338.67;;;24.02;46.82
39275;BME280;24980;48.874;2.332;2023-11-21T13:04:36;101339.65;;;24.00;46.85
39275;BME280;24980;48.874;2.332;2023-11-21T13:07:06;101341.77;;;24.00;46.86